Time;durP1;ratioP1;P1;durP2;ratioP2;P2;SDS_P1;SDS_P2;PMS_P1;PMS_P2;Temp;Humidity;BMP_temperature;BMP_pressure;BME280_temperature;BME280_humidity;BME280_pressure;Samples;Min_cycle;Max_cycle;Signal;HPM_P1;HPM_P2
2022/12/06 00:01:15;;;;;;;7.55;2.12;;;;;;;-10.77;100.00;102272.30;1723778;83;20945;-63
2022/12/06 00:03:43;;;;;;;4.12;1.27;;;;;;;-10.78;100.00;102278.19;1706593;82;21009;-60
2022/12/06 00:06:15;;;;;;;4.60;1.37;;;;;;;-10.81;100.00;102274.40;1735966;81;21250;-65
2022/12/06 00:08:43;;;;;;;4.25;1.35;;;;;;;-10.82;100.00;102265.17;1736011;82;20969;-60
2022/12/06 00:11:13;;;;;;;8.03;3.35;;;;;;;-10.81;100.00;102271.88;1735550;82;20854;-60
2022/12/06 00:13:40;;;;;;;;;;;;;;;-10.83;100.00;102263.50;1769788;81;20999;-60
2022/12/06 00:16:12;;;;;;;3.85;1.80;;;;;;;-10.86;100.00;102264.32;1766684;81;20476;-62
2022/12/06 00:18:40;;;;;;;5.05;2.25;;;;;;;-10.86;100.00;102264.74;1767259;81;22118;-65
2022/12/06 00:21:16;;;;;;;6.65;2.10;;;;;;;-10.88;100.00;102258.85;1766982;81;20845;-60
2022/12/06 00:23:45;;;;;;;4.22;1.55;;;;;;;-10.91;100.00;102260.09;1767398;81;21012;-60
2022/12/06 00:26:13;;;;;;;4.28;1.72;;;;;;;-10.93;100.00;102263.05;1766886;81;20916;-60
2022/12/06 00:28:40;;;;;;;5.83;2.00;;;;;;;-10.95;100.00;102255.89;1767031;81;20999;-64
2022/12/06 00:31:14;;;;;;;3.83;1.40;;;;;;;-10.94;100.00;102261.38;1767162;81;21021;-60
2022/12/06 00:33:41;;;;;;;3.72;1.60;;;;;;;-10.95;100.00;102258.41;1767246;81;21675;-60
2022/12/06 00:36:17;;;;;;;5.30;1.77;;;;;;;-10.96;100.00;102257.58;1766805;81;20860;-65
2022/12/06 00:38:44;;;;;;;4.55;1.60;;;;;;;-10.95;100.00;102255.47;1766556;81;20936;-61
2022/12/06 00:41:13;;;;;;;4.33;1.55;;;;;;;-10.94;100.00;102249.62;1767553;81;20938;-62
2022/12/06 00:43:41;;;;;;;5.17;2.05;;;;;;;-10.95;100.00;102249.17;1767406;81;21272;-60
2022/12/06 00:46:11;;;;;;;5.92;2.10;;;;;;;-10.97;100.00;102239.95;1766514;81;20963;-63
2022/12/06 00:48:38;;;;;;;5.28;1.72;;;;;;;-10.98;100.00;102244.55;1766900;81;20967;-62
2022/12/06 00:51:07;;;;;;;5.65;1.77;;;;;;;-10.98;100.00;102242.03;1767424;81;22358;-60
2022/12/06 00:53:34;;;;;;;4.50;2.05;;;;;;;-11.01;100.00;102231.55;1767354;81;21398;-60
2022/12/06 00:56:01;;;;;;;6.97;2.20;;;;;;;-11.03;100.00;102226.50;1766534;81;21218;-63
2022/12/06 00:58:28;;;;;;;6.17;1.62;;;;;;;-11.02;100.00;102231.14;1767290;81;21486;-60
2022/12/06 01:00:55;;;;;;;5.80;1.62;;;;;;;-11.04;100.00;102226.08;1766878;81;20904;-61
2022/12/06 01:03:22;;;;;;;4.05;1.75;;;;;;;-11.04;100.00;102226.50;1763527;81;20992;-61
2022/12/06 01:05:50;;;;;;;6.87;2.45;;;;;;;-11.05;100.00;102226.09;1749532;82;21475;-60
2022/12/06 01:08:17;;;;;;;6.83;2.52;;;;;;;-11.08;100.00;102224.40;1748968;82;21264;-61
2022/12/06 01:10:52;;;;;;;5.70;2.20;;;;;;;-11.08;100.00;102218.53;1749292;82;20948;-65
2022/12/06 01:13:19;;;;;;;5.97;2.17;;;;;;;-11.09;100.00;102219.38;1748868;81;20917;-62
2022/12/06 01:15:46;;;;;;;5.72;1.77;;;;;;;-11.08;100.00;102224.40;1749434;81;20944;-61
2022/12/06 01:18:14;;;;;;;4.83;1.70;;;;;;;-11.09;100.00;102222.73;1749175;82;20996;-60
2022/12/06 01:20:41;;;;;;;7.67;2.95;;;;;;;-11.10;100.00;102223.58;1748909;82;21244;-63
2022/12/06 01:23:08;;;;;;;5.25;1.95;;;;;;;-11.11;100.00;102219.35;1749300;81;20972;-60
2022/12/06 01:25:35;;;;;;;7.95;2.40;;;;;;;-11.11;100.00;102224.39;1749431;81;20897;-60
2022/12/06 01:28:02;;;;;;;4.08;1.85;;;;;;;-11.11;100.00;102222.30;1749234;81;20952;-64
2022/12/06 01:30:29;;;;;;;4.30;1.67;;;;;;;-11.11;100.00;102226.07;1749165;82;20901;-67
2022/12/06 01:32:56;;;;;;;5.97;2.27;;;;;;;-11.14;100.00;102220.59;1749050;81;21290;-61
2022/12/06 01:35:23;;;;;;;7.05;2.22;;;;;;;-11.13;100.00;102222.72;1749402;81;22110;-60
2022/12/06 01:37:51;;;;;;;5.53;2.30;;;;;;;-11.13;100.00;102218.95;1749508;81;20905;-60
2022/12/06 01:40:18;;;;;;;5.20;1.37;;;;;;;-11.13;100.00;102216.01;1748779;82;20857;-61
2022/12/06 01:42:45;;;;;;;4.90;1.90;;;;;;;-11.11;100.00;102221.03;1749572;81;21390;-60
2022/12/06 01:45:12;;;;;;;5.67;2.10;;;;;;;-11.13;100.00;102216.01;1748888;81;21282;-61
2022/12/06 01:47:43;;;;;;;5.30;1.85;;;;;;;-11.15;100.00;102211.38;1749412;81;21992;-60
2022/12/06 01:50:28;;;;;;;4.75;1.90;;;;;;;-11.15;100.00;102210.11;1749295;82;21426;-64
2022/12/06 01:52:59;;;;;;;7.00;1.95;;;;;;;-11.15;100.00;102207.59;1748844;82;21456;-61
2022/12/06 01:55:27;;;;;;;3.77;1.47;;;;;;;-11.18;100.00;102214.30;1749784;81;21556;-60
2022/12/06 01:57:57;;;;;;;4.70;1.67;;;;;;;-11.20;100.00;102217.25;1725492;82;21243;-61
2022/12/06 02:00:24;;;;;;;5.15;1.45;;;;;;;-11.21;100.00;102219.32;1749377;81;20960;-61
2022/12/06 02:02:51;;;;;;;6.33;1.55;;;;;;;-11.21;100.00;102216.41;1748938;82;20952;-60
2022/12/06 02:05:18;;;;;;;6.12;2.22;;;;;;;-11.20;100.00;102215.56;1757492;81;21023;-60
2022/12/06 02:07:45;;;;;;;4.85;1.95;;;;;;;-11.21;100.00;102212.64;1758335;81;20920;-61
2022/12/06 02:10:13;;;;;;;6.45;2.72;;;;;;;-11.24;100.00;102213.88;1758858;81;21100;-61
2022/12/06 02:12:40;;;;;;;7.60;2.02;;;;;;;-11.25;100.00;102221.41;1758136;81;20853;-60
2022/12/06 02:15:08;;;;;;;5.47;2.20;;;;;;;-11.27;100.00;102220.16;1758715;81;20932;-60
2022/12/06 02:17:47;;;;;;;4.40;1.85;;;;;;;-11.30;100.00;102220.15;1758571;81;20948;-64
2022/12/06 02:20:32;;;;;;;6.15;2.72;;;;;;;-11.33;100.00;102223.48;1757742;81;20924;-63
2022/12/06 02:23:27;;;;;;;5.47;2.42;;;;;;;-11.35;100.00;102225.17;1758812;81;21140;-61
2022/12/06 02:26:23;;;;;;;5.90;2.10;;;;;;;-11.36;100.00;102218.89;1758974;81;20949;-60
2022/12/06 02:29:18;;;;;;;4.60;2.10;;;;;;;-11.37;100.00;102214.67;1720925;81;21416;-65
2022/12/06 02:32:06;;;;;;;4.28;1.87;;;;;;;-11.39;100.00;102212.59;1758921;81;20933;-61
2022/12/06 02:34:48;;;;;;;6.47;1.80;;;;;;;-11.42;100.00;102206.28;1758443;81;20976;-60
2022/12/06 02:37:31;;;;;;;5.53;1.90;;;;;;;-11.45;100.00;102209.62;1758851;81;21310;-63
2022/12/06 02:40:08;;;;;;;4.33;2.05;;;;;;;-11.46;100.00;102214.66;1757819;81;20920;-63
2022/12/06 02:43:04;;;;;;;6.85;2.08;;;;;;;-11.48;100.00;102209.60;1758852;81;20916;-60
2022/12/06 02:45:38;;;;;;;4.55;1.60;;;;;;;-11.50;100.00;102208.77;1757725;81;21450;-61
2022/12/06 02:48:05;;;;;;;3.92;1.62;;;;;;;-11.53;100.00;102210.85;1758921;81;20949;-60
2022/12/06 02:50:38;;;;;;;4.37;2.12;;;;;;;-11.55;100.00;102209.19;1749263;81;21226;-60
2022/12/06 02:53:07;;;;;;;4.47;1.87;;;;;;;-11.57;100.00;102200.35;1724962;82;21895;-65
2022/12/06 02:55:35;;;;;;;3.10;1.15;;;;;;;-11.57;100.00;102199.52;1725818;83;21435;-60
2022/12/06 02:58:02;;;;;;;4.95;1.72;;;;;;;-11.60;100.00;102196.56;1725794;83;21478;-61
2022/12/06 03:00:41;;;;;;;4.58;1.57;;;;;;;-11.61;100.00;102197.83;1725936;83;21452;-60
2022/12/06 03:03:36;;;;;;;5.12;2.02;;;;;;;-11.61;100.00;102199.09;1724828;83;21035;-63
2022/12/06 03:06:20;;;;;;;4.35;1.37;;;;;;;-11.64;100.00;102199.91;1725746;83;20891;-62
2022/12/06 03:09:28;;;;;;;4.78;1.70;;;;;;;-11.64;100.00;102197.81;1725250;83;20972;-61
2022/12/06 03:12:13;;;;;;;2.90;1.20;;;;;;;-11.65;100.00;102198.23;1694343;84;20966;-60
2022/12/06 03:15:15;;;;;;;4.22;1.52;;;;;;;-11.65;100.00;102199.49;1726087;83;20957;-60
2022/12/06 03:18:22;;;;;;;4.65;1.30;;;;;;;-11.64;100.00;102200.33;1725265;83;21491;-62
2022/12/06 03:20:59;;;;;;;5.03;1.50;;;;;;;-11.65;100.00;102195.72;1641054;83;21580;-64
2022/12/06 03:23:31;;;;;;;4.80;1.47;;;;;;;-11.64;100.00;102189.01;1696858;83;21042;-61
2022/12/06 03:25:59;;;;;;;4.05;1.70;;;;;;;-11.66;100.00;102182.72;1725362;83;20886;-65
2022/12/06 03:28:26;;;;;;;3.95;1.45;;;;;;;-11.66;100.00;102185.66;1751096;81;21402;-60
2022/12/06 03:30:53;;;;;;;3.80;1.72;;;;;;;-11.66;100.00;102181.47;1750626;81;21873;-65
2022/12/06 03:33:22;;;;;;;4.40;1.40;;;;;;;-11.65;100.00;102180.62;1751192;81;20951;-61
2022/12/06 03:35:51;;;;;;;7.53;2.17;;;;;;;-11.66;100.00;102181.89;1751273;81;20884;-61
2022/12/06 03:38:29;;;;;;;3.87;1.65;;;;;;;-11.67;100.00;102186.05;1750782;81;21426;-60
2022/12/06 03:40:56;;;;;;;3.95;1.22;;;;;;;-11.68;100.00;102191.92;1750661;81;21440;-62
2022/12/06 03:43:23;;;;;;;3.98;1.30;;;;;;;-11.70;100.00;102186.06;1725613;83;21215;-62
2022/12/06 03:45:55;;;;;;;4.15;1.70;;;;;;;-11.70;100.00;102188.58;1751113;81;20975;-61
2022/12/06 03:48:28;;;;;;;3.70;1.40;;;;;;;-11.70;100.00;102191.09;1750867;81;21537;-60
2022/12/06 03:51:00;;;;;;;6.50;1.98;;;;;;;-11.70;100.00;102192.36;1749812;81;20994;-65
2022/12/06 03:53:27;;;;;;;5.17;1.87;;;;;;;-11.68;100.00;102192.34;1751353;81;21292;-65
2022/12/06 03:55:54;;;;;;;5.35;1.62;;;;;;;-11.69;100.00;102196.55;1751039;81;21205;-60
2022/12/06 03:58:21;;;;;;;3.77;1.47;;;;;;;-11.69;100.00;102191.52;1751445;81;21432;-61
2022/12/06 04:00:48;;;;;;;3.98;1.50;;;;;;;-11.70;100.00;102192.36;1751129;81;21449;-62
2022/12/06 04:03:15;;;;;;;4.87;1.32;;;;;;;-11.72;100.00;102192.75;1750771;81;20935;-65
2022/12/06 04:05:42;;;;;;;4.15;1.32;;;;;;;-11.73;100.00;102183.95;1750843;81;21536;-61
2022/12/06 04:08:09;;;;;;;4.15;1.37;;;;;;;-11.74;100.00;102184.38;1751423;81;21480;-60
2022/12/06 04:10:36;;;;;;;6.25;1.57;;;;;;;-11.75;100.00;102182.67;1751371;81;20931;-61
2022/12/06 04:13:04;;;;;;;3.27;1.22;;;;;;;-11.76;100.00;102181.00;1750816;81;20947;-63
2022/12/06 04:15:35;;;;;;;5.65;1.30;;;;;;;-11.78;100.00;102176.37;1750612;81;20904;-61
2022/12/06 04:18:15;;;;;;;3.40;1.35;;;;;;;-11.79;100.00;102180.56;1751455;81;20900;-62
2022/12/06 04:23:43;;;;;;;3.35;1.32;;;;;;;-11.83;100.00;102171.78;1751208;81;20931;-62
2022/12/06 04:26:12;;;;;;;3.42;1.55;;;;;;;-11.85;100.00;102168.44;1750878;81;20856;-63
2022/12/06 04:39:40;;;;;;;4.70;1.57;;;;;;;-11.96;100.00;102168.80;1750405;81;20876;-62
2022/12/06 04:44:52;;;;;;;6.60;1.50;;;;;;;-11.99;100.00;102152.44;1751364;81;20955;-66
2022/12/06 04:47:19;;;;;;;4.75;1.42;;;;;;;-12.00;100.00;102160.83;1750298;81;22574;-66
2022/12/06 04:49:47;;;;;;;5.55;1.90;;;;;;;-12.02;100.00;102159.55;1751314;81;20986;-63
2022/12/06 04:52:14;;;;;;;9.20;1.35;;;;;;;-12.04;100.00;102161.23;1751380;81;21009;-62
2022/12/06 04:54:41;;;;;;;5.60;1.98;;;;;;;-12.05;100.00;102157.84;1751326;81;20935;-62
2022/12/06 04:57:11;;;;;;;5.22;1.57;;;;;;;-12.04;100.00;102161.23;1750727;81;20935;-63
2022/12/06 04:59:39;;;;;;;6.35;2.72;;;;;;;-12.06;100.00;102151.14;1722728;81;21274;-62
2022/12/06 05:02:06;;;;;;;6.25;1.65;;;;;;;-12.05;100.00;102153.23;1751250;81;20888;-62
2022/12/06 05:04:33;;;;;;;4.53;1.52;;;;;;;-12.07;100.00;102149.47;1751198;81;21093;-63
2022/12/06 05:07:00;;;;;;;5.78;2.15;;;;;;;-12.06;100.00;102157.43;1750882;81;20899;-67
2022/12/06 05:09:27;;;;;;;4.72;2.22;;;;;;;-12.07;100.00;102146.96;1750947;81;21434;-69
2022/12/06 05:11:54;;;;;;;4.70;1.70;;;;;;;-12.09;100.00;102151.13;1751048;81;21462;-63
2022/12/06 05:14:21;;;;;;;4.92;2.08;;;;;;;-12.08;100.00;102156.59;1751351;81;21465;-62
2022/12/06 05:16:48;;;;;;;4.50;1.50;;;;;;;-11.99;100.00;102158.73;1751448;81;20848;-62
2022/12/06 05:19:15;;;;;;;7.90;2.17;;;;;;;-11.82;100.00;102160.45;1750930;81;20958;-66
2022/12/06 05:21:42;;;;;;;8.40;2.62;;;;;;;-11.57;100.00;102160.52;1750757;81;20900;-66
2022/12/06 05:24:09;;;;;;;7.15;1.80;;;;;;;-11.35;100.00;102157.64;1751359;81;21228;-62
2022/12/06 05:26:36;;;;;;;6.30;3.17;;;;;;;-11.15;100.00;102153.89;1751269;81;20892;-62
2022/12/06 05:29:03;;;;;;;6.03;1.92;;;;;;;-10.94;100.00;102151.81;1751417;81;21485;-63
2022/12/06 05:31:30;;;;;;;6.37;2.15;;;;;;;-10.67;100.00;102159.36;1750528;81;20884;-63
2022/12/06 05:33:57;;;;;;;4.87;2.17;;;;;;;-10.37;100.00;102151.34;1750785;81;21007;-62
2022/12/06 05:36:26;;;;;;;5.90;1.85;;;;;;;-10.06;100.00;102149.11;1751548;81;21886;-62
2022/12/06 05:38:53;;;;;;;4.75;1.90;;;;;;;-9.79;100.00;102146.06;1751456;81;20900;-62
2022/12/06 05:41:21;;;;;;;7.05;1.75;;;;;;;-9.59;100.00;102148.47;1751376;81;20927;-67
2022/12/06 05:43:48;;;;;;;5.97;2.05;;;;;;;-9.40;100.00;102153.83;1750480;81;20980;-63
2022/12/06 05:46:16;;;;;;;4.87;1.85;;;;;;;-9.25;100.00;102140.27;1751575;81;22095;-62
2022/12/06 05:48:43;;;;;;;6.87;2.22;;;;;;;-9.08;100.00;102145.22;1751251;81;21943;-62
2022/12/06 05:51:10;;;;;;;4.87;2.10;;;;;;;-8.88;100.00;102150.11;1751264;81;20848;-62
2022/12/06 05:53:37;;;;;;;8.60;2.72;;;;;;;-8.68;100.00;102150.77;1750605;81;21425;-65
2022/12/06 05:56:08;;;;;;;8.10;3.05;;;;;;;-8.50;100.00;102153.56;1751051;81;21554;-59
2022/12/06 05:58:36;;;;;;;8.88;3.40;;;;;;;-8.33;100.00;102155.91;1751781;81;20860;-59
2022/12/06 06:01:03;;;;;;;7.28;2.87;;;;;;;-8.14;100.00;102155.28;1744323;81;21073;-62
2022/12/06 06:03:30;;;;;;;6.42;2.70;;;;;;;-7.95;100.00;102156.75;1722143;83;20890;-68
2022/12/06 06:05:59;;;;;;;10.10;3.80;;;;;;;-7.78;100.00;102151.47;1714229;83;20946;-66
2022/12/06 06:08:27;;;;;;;6.50;3.42;;;;;;;-7.62;100.00;102147.87;1709832;83;20966;-65
2022/12/06 06:10:54;;;;;;;8.18;3.30;;;;;;;-7.50;100.00;102148.16;1710056;83;21525;-64
2022/12/06 06:13:21;;;;;;;5.83;2.65;;;;;;;-7.34;100.00;102143.70;1709501;83;21251;-67
2022/12/06 06:15:49;;;;;;;13.90;2.47;;;;;;;-7.21;100.00;102144.35;1709154;83;20986;-65
2022/12/06 06:18:16;;;;;;;7.58;3.17;;;;;;;-7.10;100.00;102143.76;1709926;83;22094;-65
2022/12/06 06:20:51;;;;;;;5.90;2.20;;;;;;;-6.96;100.00;102146.09;1709787;82;20966;-65
2022/12/06 06:23:18;;;;;;;5.22;2.22;;;;;;;-6.84;100.00;102144.62;1709507;83;20974;-66
2022/12/06 06:25:45;;;;;;;6.72;2.95;;;;;;;-6.74;100.00;102135.14;1709101;83;21138;-66
2022/12/06 06:28:12;;;;;;;9.08;2.45;;;;;;;-6.67;100.00;102136.71;1710651;81;20994;-65
2022/12/06 06:30:39;;;;;;;6.62;2.87;;;;;;;-6.57;100.00;102132.33;1721808;82;20863;-65
2022/12/06 06:33:06;;;;;;;5.28;2.52;;;;;;;-6.47;100.00;102123.26;1720401;83;20974;-65
2022/12/06 06:35:33;;;;;;;7.28;2.92;;;;;;;-6.36;100.00;102123.06;1720219;82;21452;-69
2022/12/06 06:38:00;;;;;;;5.08;2.55;;;;;;;-6.30;100.00;102120.83;1735466;82;22074;-66
2022/12/06 06:40:29;;;;;;;7.60;3.12;;;;;;;-6.12;100.00;102121.31;1719504;83;20902;-66
2022/12/06 06:42:56;;;;;;;5.87;2.30;;;;;;;-6.03;100.00;102110.56;1704699;83;20888;-66
2022/12/06 06:45:23;;;;;;;4.33;2.40;;;;;;;-5.87;100.00;102115.28;1718617;83;20953;-69
2022/12/06 06:47:51;;;;;;;6.17;2.85;;;;;;;-5.82;100.00;102117.72;1704480;84;20976;-66
2022/12/06 06:50:17;;;;;;;6.28;2.90;;;;;;;-5.83;100.00;102111.38;1719581;82;21261;-66
2022/12/06 06:52:45;;;;;;;7.67;2.45;;;;;;;-5.85;100.00;102110.59;1719955;83;20955;-65
2022/12/06 06:55:11;;;;;;;5.85;2.90;;;;;;;-5.84;100.00;102115.63;1719773;83;20962;-67
2022/12/06 06:57:40;;;;;;;7.65;3.12;;;;;;;-5.72;100.00;102104.37;1719207;82;20855;-65
2022/12/06 07:00:08;;;;;;;7.15;2.95;;;;;;;-5.60;100.00;102107.94;1720288;83;20902;-67
2022/12/06 07:02:38;;;;;;;7.75;2.95;;;;;;;-5.43;100.00;102105.00;1720238;83;21369;-68
2022/12/06 07:05:04;;;;;;;7.45;3.25;;;;;;;-5.31;100.00;102095.81;1719659;83;21976;-69
2022/12/06 07:07:33;;;;;;;6.37;3.10;;;;;;;-5.26;100.00;102099.11;1719051;83;21444;-68
2022/12/06 07:10:00;;;;;;;7.03;3.77;;;;;;;-5.15;100.00;102097.14;1720211;83;20934;-64
2022/12/06 07:12:27;;;;;;;6.80;2.87;;;;;;;-5.03;100.00;102085.00;1720223;82;20902;-65
2022/12/06 07:14:55;;;;;;;8.05;2.80;;;;;;;-4.87;100.00;102090.09;1735182;81;21189;-67
2022/12/06 07:17:23;;;;;;;8.75;5.03;;;;;;;-4.84;100.00;102091.30;1734218;82;20963;-69
2022/12/06 07:19:50;;;;;;;8.23;3.62;;;;;;;-4.92;100.00;102088.95;1735418;82;20912;-64
2022/12/06 07:22:18;;;;;;;9.50;3.50;;;;;;;-4.95;100.00;102091.56;1735550;82;21426;-67
2022/12/06 07:24:45;;;;;;;6.47;3.08;;;;;;;-5.03;100.00;102081.19;1735433;82;21004;-68
2022/12/06 07:27:12;;;;;;;8.80;3.37;;;;;;;-5.06;100.00;102078.28;1734584;82;21218;-69
2022/12/06 07:29:39;;;;;;;9.68;3.87;;;;;;;-5.03;100.00;102087.11;1735355;82;21643;-67
2022/12/06 07:32:07;;;;;;;8.98;3.47;;;;;;;-5.05;100.00;102072.31;1735646;82;20983;-66
2022/12/06 14:02:44;;;;;;;7.73;3.67;;;;;;;-5.23;72.17;101776.62;1787643;79;22583;-66
2022/12/06 14:06:08;;;;;;;7.28;3.30;;;;;;;-5.23;71.92;101776.62;1764014;81;21024;-62
2022/12/06 14:08:54;;;;;;;10.13;3.85;;;;;;;-5.25;72.15;101770.32;1764064;81;21169;-60
2022/12/06 14:11:24;;;;;;;7.67;3.10;;;;;;;-5.30;72.70;101765.82;1720478;81;20908;-66
2022/12/06 14:13:59;;;;;;;8.90;3.42;;;;;;;-5.33;73.36;101764.63;1755743;81;21010;-61
2022/12/06 14:16:53;;;;;;;8.13;2.60;;;;;;;-5.35;73.83;101771.89;1754955;81;21073;-62
2022/12/06 14:19:27;;;;;;;9.45;4.30;;;;;;;-5.41;74.43;101768.66;1753899;81;21046;-62
2022/12/06 14:21:58;;;;;;;8.90;4.58;;;;;;;-5.45;75.21;101758.19;1753790;81;21148;-63
2022/12/06 14:24:39;;;;;;;;;;;;;;;-5.48;75.64;101763.80;1757381;81;20936;-61
2022/12/06 14:27:17;;;;;;;8.83;3.62;;;;;;;-5.49;75.93;101760.84;1753701;81;20183;-61
2022/12/06 14:30:02;;;;;;;7.58;3.00;;;;;;;-5.51;76.49;101754.98;1753918;81;20943;-60
2022/12/06 14:32:37;;;;;;;7.97;3.02;;;;;;;-5.55;77.13;101762.30;1740664;81;20932;-64
2022/12/06 14:35:13;;;;;;;6.42;2.90;;;;;;;-5.59;77.55;101761.55;1746310;81;21253;-62
2022/12/06 14:37:58;;;;;;;11.30;4.30;;;;;;;-5.62;77.89;101764.17;1753814;81;20963;-61
2022/12/06 14:43:08;;;;;;;6.35;2.90;;;;;;;-5.69;78.71;101751.24;1691807;83;21077;-62
2022/12/06 14:45:35;;;;;;;6.72;2.65;;;;;;;-5.71;79.15;101748.75;1721063;83;20864;-64
2022/12/06 14:48:03;;;;;;;6.83;2.90;;;;;;;-5.74;79.82;101751.38;1721988;83;21299;-62
2022/12/06 14:50:50;;;;;;;6.92;3.15;;;;;;;-5.78;80.36;101739.63;1724081;82;22406;-61
2022/12/06 14:53:35;;;;;;;6.85;2.83;;;;;;;-5.77;80.49;101758.23;1709276;82;20960;-64
2022/12/06 14:56:25;;;;;;;7.10;2.95;;;;;;;-5.81;80.45;101749.88;1746575;81;21561;-61
2022/12/06 14:58:52;;;;;;;7.08;2.80;;;;;;;-5.83;80.64;101751.64;1746580;82;21080;-65
2022/12/06 15:01:26;;;;;;;7.87;2.83;;;;;;;-5.88;81.12;101747.92;1742477;82;22292;-63
2022/12/06 15:04:02;;;;;;;5.10;2.22;;;;;;;-5.93;81.39;101745.16;1736897;82;21052;-60
2022/12/06 15:06:34;;;;;;;9.15;3.00;;;;;;;-5.96;81.61;101746.50;1737459;82;20926;-60
2022/12/06 15:09:10;;;;;;;8.15;2.42;;;;;;;-5.97;81.63;101743.58;1736608;82;21033;-61
2022/12/06 15:14:30;;;;;;;9.43;2.98;;;;;;;-6.01;82.00;101739.46;1737263;82;21006;-64
2022/12/06 15:17:15;;;;;;;8.15;3.77;;;;;;;-6.05;81.95;101730.27;1734270;81;21263;-60
2022/12/06 15:19:50;;;;;;;9.38;4.37;;;;;;;-6.07;82.29;101729.45;1731014;81;20974;-60
2022/12/06 15:22:22;;;;;;;8.45;3.40;;;;;;;-6.10;82.42;101731.63;1727001;82;20959;-63
2022/12/06 15:24:54;;;;;;;9.33;4.08;;;;;;;-6.10;82.40;101734.61;1707150;83;21389;-59
2022/12/06 15:27:22;;;;;;;8.65;3.95;;;;;;;-6.12;82.52;101731.68;1712867;83;21160;-59
2022/12/06 15:29:49;;;;;;;9.43;3.80;;;;;;;-6.15;82.65;101733.02;1723609;83;21409;-58
2022/12/06 15:32:18;;;;;;;7.35;2.92;;;;;;;-6.19;83.20;101735.69;1704407;84;20873;-61
2022/12/06 15:34:46;;;;;;;7.35;3.30;;;;;;;-6.25;83.93;101729.08;1723313;83;22419;-59
2022/12/06 15:37:14;;;;;;;7.87;3.02;;;;;;;-6.29;84.38;101732.53;1694538;84;20997;-60
2022/12/06 15:39:42;;;;;;;11.20;3.33;;;;;;;-6.31;84.54;101731.77;1692094;84;21185;-59
2022/12/06 15:42:21;;;;;;;11.08;3.60;;;;;;;-6.31;84.05;101728.39;1694344;84;21041;-65
2022/12/06 15:44:48;;;;;;;9.50;4.00;;;;;;;-6.31;82.85;101725.86;1695099;84;21041;-61
2022/12/06 15:47:15;;;;;;;9.28;3.52;;;;;;;-6.28;81.67;101735.50;1695722;83;20942;-61
2022/12/06 15:49:43;;;;;;;10.18;3.58;;;;;;;-6.25;80.34;101728.22;1696222;83;21006;-62
2022/12/06 15:52:15;;;;;;;9.50;3.80;;;;;;;-6.24;79.57;101730.73;1705480;82;21088;-66
2022/12/06 15:54:42;;;;;;;11.05;3.40;;;;;;;-6.29;79.32;101731.27;1720290;82;21595;-61
2022/12/06 15:57:10;;;;;;;7.62;3.60;;;;;;;-6.32;79.41;101722.94;1723014;82;21527;-63
2022/12/06 15:59:38;;;;;;;6.55;3.25;;;;;;;-6.38;80.02;101728.53;1720653;82;21516;-61
2022/12/06 16:02:14;;;;;;;7.40;3.08;;;;;;;-6.43;81.00;101723.20;1723874;82;20922;-62
2022/12/06 16:04:43;;;;;;;9.10;3.10;;;;;;;-6.47;81.97;101715.27;1722383;82;21229;-61
2022/12/06 16:07:10;;;;;;;7.45;2.85;;;;;;;-6.43;82.53;101718.13;1713717;82;21167;-61
2022/12/06 16:09:37;;;;;;;6.55;2.92;;;;;;;-6.41;82.65;101715.09;1716592;82;20959;-62
2022/12/06 16:12:06;;;;;;;6.72;2.92;;;;;;;-6.38;82.33;101717.56;1709097;83;20978;-65
2022/12/06 16:14:33;;;;;;;14.68;3.10;;;;;;;-6.39;82.40;101716.73;1702876;83;21358;-61
2022/12/06 16:17:01;;;;;;;7.12;2.55;;;;;;;-6.41;82.68;101707.48;1688158;84;21135;-61
2022/12/06 16:22:16;;;;;;;9.88;4.22;;;;;;;-6.43;83.73;101710.07;1713789;83;21110;-61
2022/12/06 16:24:43;;;;;;;13.32;7.22;;;;;;;-6.43;84.42;101710.52;1714286;83;21531;-62
2022/12/06 16:27:10;;;;;;;9.75;4.97;;;;;;;-6.43;84.85;101711.34;1714617;83;21030;-61
2022/12/06 16:29:38;;;;;;;6.15;2.92;;;;;;;-6.45;85.62;101710.53;1714650;83;21219;-66
2022/12/06 16:32:06;;;;;;;6.33;2.37;;;;;;;-6.47;86.48;101704.68;1713570;83;21569;-62
2022/12/06 16:34:33;;;;;;;6.60;2.95;;;;;;;-6.49;87.23;101700.06;1713669;83;21846;-61
2022/12/06 16:37:02;;;;;;;7.55;1.92;;;;;;;-6.50;88.11;101698.84;1704826;83;21525;-61
2022/12/06 16:39:32;;;;;;;9.05;2.98;;;;;;;-6.53;88.90;101706.53;1697390;83;21018;-61
2022/12/06 16:42:00;;;;;;;5.60;2.42;;;;;;;-6.55;90.41;101705.31;1695103;83;21026;-62
2022/12/06 16:44:27;;;;;;;9.85;3.12;;;;;;;-6.58;92.09;101704.55;1698273;83;21517;-61
2022/12/06 16:46:54;;;;;;;9.25;2.27;;;;;;;-6.62;93.87;101704.63;1697379;83;20932;-61
2022/12/06 16:49:26;;;;;;;7.97;2.72;;;;;;;-6.66;96.17;101708.11;1695700;83;21058;-61
2022/12/06 16:51:53;;;;;;;;;;;;;;;-6.67;98.59;101701.78;1697304;83;20912;-65
2022/12/06 16:54:20;;;;;;;13.35;2.98;;;;;;;-6.70;100.00;101702.72;1700610;83;21384;-60
2022/12/06 16:56:47;;;;;;;6.45;2.17;;;;;;;-6.73;100.00;101684.20;1703270;82;20877;-61
2022/12/06 16:59:16;;;;;;;4.70;2.27;;;;;;;-6.74;100.00;101693.52;1708190;83;21034;-61
2022/12/06 17:01:51;;;;;;;9.45;2.40;;;;;;;-6.75;100.00;101693.09;1713529;83;21557;-63
2022/12/06 17:04:18;;;;;;;7.62;2.20;;;;;;;-6.76;100.00;101697.78;1706124;84;21463;-61
2022/12/06 17:06:46;;;;;;;7.30;3.10;;;;;;;-6.77;100.00;101688.52;1706110;83;21877;-61
2022/12/06 17:09:13;;;;;;;7.53;2.65;;;;;;;-6.79;100.00;101701.65;1705936;84;20956;-61
2022/12/06 17:14:26;;;;;;;8.83;3.15;;;;;;;-6.82;100.00;101691.58;1706612;84;21009;-60
2022/12/06 17:16:53;;;;;;;6.30;2.80;;;;;;;-6.84;100.00;101684.45;1701755;83;21534;-61
2022/12/06 17:19:25;;;;;;;7.55;3.45;;;;;;;-6.88;100.00;101682.87;1691994;83;21269;-65
2022/12/06 17:21:52;;;;;;;7.53;2.83;;;;;;;-6.91;100.00;101675.33;1692026;84;21746;-60
2022/12/06 17:24:20;;;;;;;7.33;2.65;;;;;;;-6.94;100.00;101678.76;1690389;84;21012;-60
2022/12/06 17:26:47;;;;;;;10.48;3.25;;;;;;;-6.95;100.00;101674.56;1687615;84;21067;-61
2022/12/06 17:29:16;;;;;;;7.85;3.55;;;;;;;-6.96;100.00;101674.62;1718824;82;21119;-60
2022/12/06 17:31:43;;;;;;;9.75;3.92;;;;;;;-6.98;100.00;101672.54;1710208;82;21191;-62
2022/12/06 17:34:14;;;;;;;11.20;4.05;;;;;;;-7.01;100.00;101673.87;1697411;84;21987;-61
2022/12/06 17:36:41;;;;;;;8.38;3.30;;;;;;;-7.02;100.00;101667.98;1724297;82;21054;-61
2022/12/06 17:39:09;;;;;;;8.58;4.20;;;;;;;-7.00;100.00;101666.69;1704636;83;21063;-61
2022/12/06 17:44:22;;;;;;;11.88;4.10;;;;;;;-7.01;100.00;101652.33;1709750;83;21279;-60
2022/12/06 17:46:51;;;;;;;10.00;4.12;;;;;;;-7.04;100.00;101666.37;1708616;83;21019;-61
2022/12/06 17:49:21;;;;;;;11.00;4.05;;;;;;;-7.04;100.00;101658.77;1710434;83;20916;-64
2022/12/06 17:51:48;;;;;;;10.58;3.87;;;;;;;-7.04;100.00;101641.02;1709306;83;21663;-61
2022/12/06 17:54:16;;;;;;;9.35;4.37;;;;;;;-7.02;100.00;101664.61;1706743;83;21882;-61
2022/12/06 17:56:46;;;;;;;12.68;4.03;;;;;;;-7.01;100.00;101661.20;1709009;83;21213;-60
2022/12/06 17:59:17;;;;;;;12.53;3.92;;;;;;;-7.03;100.00;101662.95;1708320;83;21006;-64
2022/12/06 18:01:45;;;;;;;8.15;3.12;;;;;;;-7.06;100.00;101661.75;1708534;83;21121;-61
2022/12/06 18:04:12;;;;;;;10.40;4.00;;;;;;;-7.10;100.00;101661.82;1690383;83;21106;-61
2022/12/06 18:06:40;;;;;;;8.45;3.58;;;;;;;-7.10;100.00;101658.02;1671827;83;21122;-60
2022/12/06 18:09:14;;;;;;;9.08;2.95;;;;;;;-7.12;100.00;101663.57;1703329;83;22272;-61
2022/12/06 18:11:41;;;;;;;12.90;4.10;;;;;;;-7.14;100.00;101655.16;1673862;83;21030;-62
2022/12/06 18:14:11;;;;;;;7.87;3.50;;;;;;;-7.17;100.00;101659.02;1690566;84;21062;-61
2022/12/06 18:16:39;;;;;;;8.20;3.40;;;;;;;-7.18;100.00;101659.90;1672841;84;21114;-61
2022/12/06 18:19:12;;;;;;;8.15;3.30;;;;;;;-7.19;100.00;101666.28;1695728;83;21536;-60
2022/12/06 18:21:40;;;;;;;11.68;3.85;;;;;;;-7.20;100.00;101660.80;1668812;84;21245;-61
2022/12/06 18:24:09;;;;;;;9.50;3.65;;;;;;;-7.17;100.00;101650.59;1668597;85;21428;-61
2022/12/06 18:26:37;;;;;;;7.42;3.05;;;;;;;-7.18;100.00;101666.67;1668674;85;21063;-60
2022/12/06 18:29:05;;;;;;;10.30;3.67;;;;;;;-7.21;100.00;101662.50;1668674;85;21011;-61